Time;durP1;ratioP1;P1;durP2;ratioP2;P2;SDS_P1;SDS_P2;PMS_P1;PMS_P2;Temp;Humidity;BMP_temperature;BMP_pressure;BME280_temperature;BME280_humidity;BME280_pressure;Samples;Min_cycle;Max_cycle;Signal;HPM_P1;HPM_P2
2020/12/18 00:00:57;;;;;;;237.48;134.60;;;17.40;64.80;;;;;;5011792;28;20026;-60
2020/12/18 00:03:22;;;;;;;225.10;124.72;;;17.40;64.50;;;;;;5011524;28;20038;-60
2020/12/18 00:05:48;;;;;;;226.18;128.00;;;17.40;64.10;;;;;;4994195;28;20065;-60
2020/12/18 00:08:14;;;;;;;223.90;126.63;;;17.40;63.80;;;;;;5011622;28;20065;-60
2020/12/18 00:10:40;;;;;;;218.25;124.93;;;17.50;63.80;;;;;;5011693;28;20437;-60
2020/12/18 00:13:07;;;;;;;208.32;120.63;;;17.50;63.80;;;;;;5011526;28;20034;-60
2020/12/18 00:15:33;;;;;;;215.77;124.18;;;17.50;63.70;;;;;;5012825;28;20034;-59
2020/12/18 00:17:58;;;;;;;215.45;118.00;;;17.50;63.60;;;;;;5013267;28;20505;-59
2020/12/18 00:20:24;;;;;;;213.63;120.50;;;17.50;63.20;;;;;;5013845;28;20351;-59
2020/12/18 00:22:50;;;;;;;213.88;116.93;;;17.50;63.30;;;;;;5013806;28;20022;-59
2020/12/18 00:25:15;;;;;;;205.68;115.10;;;17.40;63.20;;;;;;5013780;28;20026;-58
2020/12/18 00:27:42;;;;;;;208.27;117.03;;;17.40;63.20;;;;;;5013919;28;20060;-58
2020/12/18 00:30:09;;;;;;;202.40;111.25;;;17.30;63.10;;;;;;5013721;28;20030;-58
2020/12/18 00:32:36;;;;;;;204.15;112.47;;;17.20;63.20;;;;;;5013647;28;20034;-58
2020/12/18 00:35:10;;;;;;;206.77;111.53;;;17.20;63.40;;;;;;5013671;28;20428;-59
2020/12/18 00:37:35;;;;;;;177.38;105.05;;;17.20;63.80;;;;;;4997614;28;20037;-58
2020/12/18 00:40:03;;;;;;;179.82;104.80;;;17.20;63.90;;;;;;5017919;28;20030;-58
2020/12/18 00:42:29;;;;;;;181.82;105.72;;;17.10;63.70;;;;;;5017367;28;20030;-58
2020/12/18 00:44:55;;;;;;;189.75;107.50;;;17.10;63.50;;;;;;5017396;28;20029;-60
2020/12/18 00:47:21;;;;;;;177.13;101.22;;;17.10;63.90;;;;;;5017614;28;20033;-59
2020/12/18 00:49:46;;;;;;;183.00;102.07;;;17.10;63.80;;;;;;5017327;28;20053;-58
2020/12/18 00:52:12;;;;;;;178.98;104.82;;;17.10;63.80;;;;;;5017338;28;20395;-58
2020/12/18 00:54:37;;;;;;;169.80;96.60;;;17.00;63.80;;;;;;5017149;28;20113;-58
2020/12/18 00:57:03;;;;;;;176.48;98.32;;;17.00;63.80;;;;;;5017051;28;20382;-59
2020/12/18 00:59:29;;;;;;;166.90;94.47;;;17.00;63.90;;;;;;5017038;28;20030;-59
2020/12/18 01:02:00;;;;;;;163.88;94.38;;;17.00;63.80;;;;;;5017499;28;20025;-59
2020/12/18 01:04:26;;;;;;;162.10;91.07;;;17.00;63.40;;;;;;5017530;28;20041;-59
2020/12/18 01:06:53;;;;;;;168.05;93.60;;;17.10;63.30;;;;;;5017248;28;20026;-58
2020/12/18 01:09:20;;;;;;;159.15;90.28;;;17.10;63.20;;;;;;5016924;28;20030;-58
2020/12/18 01:11:45;;;;;;;161.05;90.95;;;17.10;63.10;;;;;;4999338;28;20030;-58
2020/12/18 01:14:11;;;;;;;161.38;90.35;;;17.10;63.10;;;;;;5016841;28;20033;-58
2020/12/18 01:16:37;;;;;;;155.60;88.03;;;17.10;62.90;;;;;;5017063;28;20033;-58
2020/12/18 01:19:02;;;;;;;150.63;84.60;;;17.10;62.80;;;;;;5016635;28;20092;-58
2020/12/18 01:21:28;;;;;;;152.75;84.68;;;17.20;62.70;;;;;;5016563;28;20022;-60
2020/12/18 01:23:53;;;;;;;153.25;84.32;;;17.20;62.30;;;;;;5016734;28;20026;-58
2020/12/18 01:26:19;;;;;;;152.70;83.43;;;17.20;62.20;;;;;;5016678;28;20523;-60
2020/12/18 01:28:45;;;;;;;148.48;83.72;;;17.20;62.20;;;;;;5016493;28;20516;-60
2020/12/18 01:31:10;;;;;;;146.25;85.10;;;17.20;62.10;;;;;;5016807;28;20101;-60
2020/12/18 01:33:36;;;;;;;138.93;80.32;;;17.30;62.10;;;;;;5016802;28;20025;-60
2020/12/18 01:36:01;;;;;;;136.40;77.07;;;17.40;61.70;;;;;;5016394;28;20034;-60
2020/12/18 01:38:27;;;;;;;134.35;76.65;;;17.50;61.40;;;;;;5016574;28;20029;-60
2020/12/18 01:40:53;;;;;;;133.82;77.55;;;17.50;61.10;;;;;;5016450;28;20033;-60
2020/12/18 01:43:19;;;;;;;131.95;73.70;;;17.60;60.70;;;;;;5016172;28;20113;-60
2020/12/18 01:45:44;;;;;;;138.02;74.50;;;17.70;60.40;;;;;;5016295;28;20026;-60
2020/12/18 01:48:12;;;;;;;119.65;70.38;;;17.80;60.30;;;;;;5016127;28;20113;-60
2020/12/18 01:50:37;;;;;;;124.88;73.32;;;17.80;60.20;;;;;;5015926;28;20026;-59
2020/12/18 01:53:03;;;;;;;130.05;71.13;;;17.80;60.20;;;;;;5016284;28;20092;-60
2020/12/18 01:55:30;;;;;;;124.78;70.35;;;17.80;60.20;;;;;;5016066;28;20121;-60
2020/12/18 01:57:56;;;;;;;117.20;67.72;;;17.80;60.10;;;;;;5016019;28;20037;-60
2020/12/18 02:00:23;;;;;;;124.00;68.72;;;17.80;60.20;;;;;;5016175;28;20137;-60
2020/12/18 02:02:49;;;;;;;117.05;67.40;;;17.80;60.20;;;;;;4998848;28;20030;-59
2020/12/18 02:05:15;;;;;;;112.72;65.50;;;17.90;60.20;;;;;;5015948;28;20025;-60
2020/12/18 02:07:48;;;;;;;113.68;63.75;;;18.00;60.40;;;;;;5015915;28;20083;-60
2020/12/18 02:10:14;;;;;;;109.68;61.75;;;18.10;59.50;;;;;;5015836;28;20474;-60
2020/12/18 02:12:39;;;;;;;112.30;63.65;;;18.00;59.40;;;;;;5015946;28;20065;-60
2020/12/18 02:15:05;;;;;;;105.57;60.33;;;18.10;59.30;;;;;;5015880;28;20470;-60
2020/12/18 02:17:31;;;;;;;115.15;61.30;;;18.10;59.10;;;;;;5015413;28;20424;-60
2020/12/18 02:19:57;;;;;;;106.68;61.30;;;18.10;59.20;;;;;;5015839;28;20029;-60
2020/12/18 02:22:24;;;;;;;104.05;57.75;;;18.00;59.40;;;;;;5015682;28;20037;-60
2020/12/18 02:25:01;;;;;;;102.45;58.95;;;17.90;59.50;;;;;;5015381;28;20109;-60
2020/12/18 02:27:27;;;;;;;94.80;53.63;;;17.90;59.60;;;;;;5015542;28;20040;-60
2020/12/18 02:29:53;;;;;;;102.05;58.20;;;17.80;59.70;;;;;;5015909;28;20038;-60
2020/12/18 02:32:19;;;;;;;97.90;55.58;;;17.70;59.80;;;;;;5015416;28;20048;-60
2020/12/18 02:34:44;;;;;;;100.53;55.35;;;17.70;59.90;;;;;;5015319;28;20033;-60
2020/12/18 02:37:10;;;;;;;96.93;55.88;;;17.60;59.90;;;;;;5014904;28;20116;-60
2020/12/18 02:39:36;;;;;;;95.78;52.80;;;17.60;60.00;;;;;;5015248;28;20041;-60
2020/12/18 02:42:02;;;;;;;93.68;52.75;;;17.60;60.70;;;;;;5015505;28;20073;-60
2020/12/18 02:44:27;;;;;;;93.35;53.30;;;17.60;60.10;;;;;;5015398;28;20061;-60
2020/12/18 02:46:53;;;;;;;92.53;51.08;;;17.60;60.20;;;;;;5015136;28;20052;-60
2020/12/18 02:49:19;;;;;;;91.60;50.55;;;17.50;60.10;;;;;;5015093;28;20370;-60
2020/12/18 02:51:44;;;;;;;84.72;48.47;;;17.50;60.20;;;;;;5015082;28;20026;-60
2020/12/18 02:54:13;;;;;;;85.10;49.45;;;17.50;60.30;;;;;;5015555;28;20113;-60
2020/12/18 02:56:39;;;;;;;87.50;49.80;;;17.50;60.30;;;;;;5014736;28;20348;-60
2020/12/18 02:59:05;;;;;;;84.00;48.03;;;17.50;60.40;;;;;;5014841;28;20122;-60
2020/12/18 03:01:31;;;;;;;81.22;47.90;;;17.50;60.30;;;;;;5013957;28;20030;-60
2020/12/18 03:03:57;;;;;;;79.43;46.35;;;17.40;60.30;;;;;;5014730;28;20026;-60
2020/12/18 03:06:22;;;;;;;83.18;47.13;;;17.40;60.40;;;;;;5014806;28;20482;-60
2020/12/18 03:08:48;;;;;;;75.60;46.03;;;17.50;60.40;;;;;;5014742;28;20030;-60
2020/12/18 03:11:14;;;;;;;74.35;45.63;;;17.40;60.30;;;;;;5014617;28;20496;-60
2020/12/18 03:13:40;;;;;;;77.28;44.55;;;17.40;60.40;;;;;;5014844;28;20030;-60
2020/12/18 03:16:05;;;;;;;72.00;43.78;;;17.40;60.40;;;;;;5014489;28;20386;-60
2020/12/18 03:18:31;;;;;;;74.75;43.45;;;17.40;60.30;;;;;;5014514;28;20054;-60
2020/12/18 03:20:57;;;;;;;73.45;43.80;;;17.40;60.60;;;;;;5014560;28;20036;-60
2020/12/18 03:23:22;;;;;;;74.28;41.95;;;17.50;60.20;;;;;;5014526;28;20076;-60
2020/12/18 03:25:48;;;;;;;73.32;42.17;;;17.50;59.80;;;;;;5014277;28;20523;-60
2020/12/18 03:28:13;;;;;;;67.25;40.25;;;17.50;59.90;;;;;;5014448;28;20112;-60
2020/12/18 03:30:39;;;;;;;70.60;42.33;;;17.40;60.10;;;;;;5014295;28;20042;-60
2020/12/18 03:33:05;;;;;;;68.22;39.50;;;17.40;60.20;;;;;;5014385;28;20057;-60
2020/12/18 03:35:30;;;;;;;73.80;42.03;;;17.30;60.20;;;;;;5014280;28;20026;-60
2020/12/18 03:37:56;;;;;;;70.15;38.72;;;17.30;60.30;;;;;;5014475;28;20485;-60
2020/12/18 03:40:22;;;;;;;70.05;40.05;;;17.30;60.40;;;;;;5014447;28;20037;-62
2020/12/18 03:42:48;;;;;;;67.75;39.25;;;17.20;60.40;;;;;;5014159;28;20030;-59
2020/12/18 03:45:13;;;;;;;68.40;38.53;;;17.30;61.00;;;;;;5014054;28;20062;-60
2020/12/18 03:47:39;;;;;;;64.90;39.33;;;17.20;60.40;;;;;;5014118;28;20038;-60
2020/12/18 03:50:08;;;;;;;65.85;39.00;;;17.20;60.50;;;;;;5014070;28;20061;-60
2020/12/18 03:52:34;;;;;;;67.68;38.88;;;17.20;60.50;;;;;;5013861;28;20030;-60
2020/12/18 03:54:59;;;;;;;63.10;37.53;;;17.20;60.50;;;;;;5013804;28;20029;-60
2020/12/18 03:57:25;;;;;;;58.75;35.28;;;17.20;60.50;;;;;;5013797;28;20030;-60
2020/12/18 03:59:51;;;;;;;64.07;36.72;;;17.20;60.60;;;;;;5013901;28;20061;-60
2020/12/18 04:02:17;;;;;;;64.32;36.17;;;17.10;60.50;;;;;;5013940;28;20113;-60
2020/12/18 04:04:43;;;;;;;56.47;34.55;;;17.10;60.50;;;;;;5013954;28;20086;-59
2020/12/18 04:07:13;;;;;;;62.42;34.63;;;17.10;60.70;;;;;;5014324;28;20033;-60
2020/12/18 04:09:40;;;;;;;57.50;33.80;;;17.10;60.70;;;;;;5014467;28;20080;-60
2020/12/18 04:12:06;;;;;;;62.58;34.20;;;17.10;60.70;;;;;;5014487;28;20026;-60
2020/12/18 04:14:32;;;;;;;61.28;34.22;;;17.00;61.00;;;;;;5000453;28;20491;-60
2020/12/18 04:16:57;;;;;;;57.20;32.85;;;17.00;61.10;;;;;;5017654;28;20026;-60
2020/12/18 04:19:23;;;;;;;55.42;31.27;;;17.10;60.90;;;;;;5017929;28;20445;-60
2020/12/18 04:21:49;;;;;;;54.00;30.80;;;17.20;60.80;;;;;;5017898;28;20022;-60
2020/12/18 04:24:14;;;;;;;50.65;27.83;;;17.30;60.30;;;;;;5017924;28;20080;-60
2020/12/18 04:26:40;;;;;;;56.33;31.67;;;17.50;60.00;;;;;;5017832;28;20385;-60
2020/12/18 04:29:06;;;;;;;51.53;31.02;;;17.50;59.50;;;;;;5017701;28;20096;-60
2020/12/18 04:31:31;;;;;;;51.83;30.70;;;17.60;59.30;;;;;;5017401;28;20112;-60
2020/12/18 04:33:57;;;;;;;57.72;31.75;;;17.60;59.70;;;;;;5017363;28;20025;-60
2020/12/18 04:36:22;;;;;;;56.60;31.23;;;17.70;58.90;;;;;;5017562;28;20037;-60
2020/12/18 04:38:48;;;;;;;51.25;29.60;;;17.80;58.80;;;;;;5017761;28;20042;-60
2020/12/18 04:41:15;;;;;;;53.83;30.45;;;17.60;57.90;;;;;;5017538;28;20462;-60
2020/12/18 04:43:41;;;;;;;48.65;29.67;;;17.80;58.70;;;;;;5017394;28;20458;-60
2020/12/18 04:46:09;;;;;;;46.55;27.77;;;17.90;58.70;;;;;;5017378;28;20037;-60
2020/12/18 04:48:36;;;;;;;49.10;28.92;;;17.90;58.60;;;;;;5017274;28;20061;-60
2020/12/18 04:51:03;;;;;;;47.55;27.10;;;17.90;58.50;;;;;;5017879;28;20030;-60
2020/12/18 04:53:32;;;;;;;45.85;26.05;;;17.90;58.60;;;;;;5017484;28;20029;-60
2020/12/18 04:56:08;;;;;;;47.08;27.27;;;17.80;58.70;;;;;;5017446;28;20125;-60
2020/12/18 04:58:34;;;;;;;44.38;26.58;;;17.90;58.60;;;;;;5016870;28;20057;-60
2020/12/18 05:01:01;;;;;;;45.38;26.00;;;17.80;58.60;;;;;;5017142;28;20038;-60
2020/12/18 05:03:32;;;;;;;46.83;26.48;;;17.80;58.70;;;;;;5016992;28;20026;-60
2020/12/18 05:05:59;;;;;;;;;;;17.80;58.70;;;;;;5017371;28;20040;-60
2020/12/18 05:08:26;;;;;;;43.97;24.70;;;17.80;58.50;;;;;;5017103;28;19905;-60
2020/12/18 05:10:51;;;;;;;42.60;24.70;;;17.90;58.50;;;;;;5016977;28;20448;-60
2020/12/18 05:13:18;;;;;;;37.50;23.95;;;17.90;58.30;;;;;;5016681;28;20105;-60
2020/12/18 05:15:44;;;;;;;41.25;24.30;;;18.00;58.40;;;;;;5016712;28;20064;-60
2020/12/18 05:18:09;;;;;;;38.92;22.95;;;18.10;58.00;;;;;;4999023;28;20082;-60
2020/12/18 05:20:35;;;;;;;40.25;23.25;;;18.50;57.30;;;;;;5017084;28;20080;-60
2020/12/18 05:23:09;;;;;;;38.45;22.25;;;18.60;56.70;;;;;;5016589;28;20026;-60
2020/12/18 05:25:37;;;;;;;36.03;22.60;;;18.70;56.50;;;;;;5015919;28;20029;-61
2020/12/18 05:28:04;;;;;;;38.35;22.13;;;18.80;56.20;;;;;;5016667;28;20543;-60
2020/12/18 05:30:30;;;;;;;39.22;22.98;;;18.80;56.40;;;;;;5016665;28;20080;-60
2020/12/18 05:32:56;;;;;;;40.00;21.95;;;18.80;56.30;;;;;;5017024;28;20428;-60
2020/12/18 05:35:22;;;;;;;34.63;21.45;;;18.70;56.50;;;;;;5016416;28;20447;-60
2020/12/18 05:37:50;;;;;;;36.13;21.73;;;18.70;56.50;;;;;;5016335;28;20167;-60
2020/12/18 05:40:17;;;;;;;34.85;21.98;;;18.70;56.50;;;;;;5016378;28;20480;-60
2020/12/18 05:42:44;;;;;;;38.45;21.77;;;18.80;56.30;;;;;;5016720;28;20037;-60
2020/12/18 05:45:20;;;;;;;34.45;21.40;;;18.80;56.20;;;;;;5016375;28;20026;-60
2020/12/18 05:47:57;;;;;;;34.65;19.67;;;18.90;56.20;;;;;;5016413;28;20037;-60
2020/12/18 05:50:27;;;;;;;34.42;20.05;;;19.00;56.00;;;;;;5016561;28;20107;-60
2020/12/18 05:53:04;;;;;;;34.60;19.95;;;19.00;56.00;;;;;;5016212;28;20030;-60
2020/12/18 05:55:38;;;;;;;32.33;19.52;;;19.00;55.80;;;;;;5016163;28;20034;-60
2020/12/18 05:58:04;;;;;;;33.78;19.70;;;19.00;55.90;;;;;;5016103;28;20438;-60
2020/12/18 06:00:30;;;;;;;36.90;20.02;;;19.00;56.00;;;;;;5016038;28;20112;-60
2020/12/18 06:02:57;;;;;;;32.30;19.52;;;19.00;56.00;;;;;;5015988;28;20022;-60
2020/12/18 06:05:24;;;;;;;33.03;18.55;;;19.00;56.00;;;;;;5015964;28;20032;-60
2020/12/18 06:07:51;;;;;;;32.55;19.60;;;19.00;55.90;;;;;;5015992;28;20080;-60
2020/12/18 06:10:23;;;;;;;30.98;17.60;;;19.00;55.90;;;;;;5015881;28;20438;-60
2020/12/18 06:12:58;;;;;;;30.05;17.83;;;18.90;56.00;;;;;;5016071;28;20034;-60
2020/12/18 06:15:26;;;;;;;29.00;17.67;;;18.90;56.10;;;;;;5015823;28;20030;-60
2020/12/18 06:17:52;;;;;;;30.13;17.45;;;18.80;56.10;;;;;;5015449;28;20080;-60
2020/12/18 06:20:20;;;;;;;28.55;17.20;;;18.80;56.50;;;;;;5015535;28;20026;-60
2020/12/18 06:23:00;;;;;;;28.05;17.23;;;19.00;56.20;;;;;;5015468;28;20476;-60
2020/12/18 06:25:26;;;;;;;29.05;16.90;;;19.10;55.60;;;;;;5015460;28;20427;-60
2020/12/18 06:28:00;;;;;;;27.50;16.52;;;19.20;55.50;;;;;;5015582;28;20065;-60
2020/12/18 06:30:29;;;;;;;30.30;17.70;;;19.20;55.30;;;;;;5015415;28;20037;-60
2020/12/18 06:32:55;;;;;;;26.67;15.97;;;19.10;55.40;;;;;;5015426;28;20033;-60
2020/12/18 06:35:34;;;;;;;26.98;16.52;;;19.00;55.80;;;;;;5015148;28;20030;-60
2020/12/18 06:38:29;;;;;;;24.25;15.98;;;18.90;56.10;;;;;;5015048;28;20034;-60
2020/12/18 06:40:55;;;;;;;26.65;15.82;;;18.70;56.30;;;;;;4998373;28;20401;-60
2020/12/18 06:43:34;;;;;;;24.15;14.82;;;18.70;56.40;;;;;;5015170;28;20085;-59
2020/12/18 06:46:04;;;;;;;25.30;16.42;;;18.60;56.50;;;;;;5015199;28;20026;-60
2020/12/18 06:48:30;;;;;;;23.50;14.32;;;18.50;56.70;;;;;;5014990;28;20116;-60
2020/12/18 06:50:55;;;;;;;23.55;13.82;;;18.50;56.70;;;;;;5015013;28;20117;-61
2020/12/18 06:53:21;;;;;;;23.85;14.63;;;18.40;56.90;;;;;;5015339;28;20366;-59
2020/12/18 06:55:47;;;;;;;23.92;14.75;;;18.40;56.90;;;;;;5015243;28;20435;-60
2020/12/18 06:58:14;;;;;;;24.35;14.23;;;18.40;57.00;;;;;;5014889;28;20449;-60
2020/12/18 07:00:55;;;;;;;22.45;13.73;;;18.30;57.00;;;;;;5014683;28;20540;-59
2020/12/18 07:03:46;;;;;;;23.20;13.32;;;18.30;57.10;;;;;;5014866;28;20034;-60
2020/12/18 07:06:27;;;;;;;23.70;14.32;;;18.20;57.10;;;;;;5014862;28;20033;-60
2020/12/18 07:08:57;;;;;;;22.73;13.98;;;18.30;57.30;;;;;;5015043;28;20030;-60
2020/12/18 07:11:23;;;;;;;20.55;13.02;;;18.20;57.40;;;;;;5014687;28;20034;-59
2020/12/18 07:13:51;;;;;;;21.88;12.52;;;18.20;57.40;;;;;;5014680;28;20029;-60
2020/12/18 07:16:24;;;;;;;21.73;13.05;;;18.20;57.40;;;;;;5014566;28;20030;-60
2020/12/18 07:18:50;;;;;;;23.95;12.98;;;18.20;57.30;;;;;;5014301;28;20053;-60
2020/12/18 07:21:18;;;;;;;21.05;12.88;;;18.30;57.30;;;;;;5014520;28;20026;-60
2020/12/18 07:23:48;;;;;;;19.02;11.50;;;18.40;56.90;;;;;;5014495;28;20076;-60
2020/12/18 07:26:16;;;;;;;22.27;12.80;;;18.70;56.30;;;;;;5014367;28;20053;-60
2020/12/18 07:28:42;;;;;;;24.77;12.75;;;18.90;55.80;;;;;;5014997;28;20041;-60
2020/12/18 07:31:25;;;;;;;19.00;11.45;;;19.00;55.40;;;;;;5014277;28;20037;-60
2020/12/18 07:33:55;;;;;;;19.95;11.55;;;19.10;55.00;;;;;;5014377;28;20026;-60
2020/12/18 07:36:22;;;;;;;19.77;11.95;;;19.10;55.30;;;;;;5014264;28;20022;-60
2020/12/18 07:38:48;;;;;;;20.83;11.77;;;19.00;55.50;;;;;;5014268;28;20069;-60
2020/12/18 07:41:14;;;;;;;24.67;11.93;;;19.00;55.60;;;;;;5013997;28;20068;-60
2020/12/18 07:43:42;;;;;;;18.92;11.32;;;18.90;55.60;;;;;;5014566;28;20029;-60
2020/12/18 07:46:11;;;;;;;21.17;11.98;;;18.90;55.60;;;;;;5014142;28;20030;-60
2020/12/18 07:48:39;;;;;;;22.75;12.85;;;18.90;55.70;;;;;;5013521;28;20034;-60
2020/12/18 07:51:09;;;;;;;19.02;11.55;;;18.90;55.80;;;;;;5014156;28;20501;-60
2020/12/18 07:53:36;;;;;;;18.47;11.33;;;18.80;55.80;;;;;;5014381;28;20033;-60
2020/12/18 07:56:18;;;;;;;22.08;11.55;;;18.80;55.90;;;;;;5014245;28;20748;-58
2020/12/18 07:58:47;;;;;;;18.00;12.15;;;18.80;56.90;;;;;;5014144;28;20500;-59
2020/12/18 08:01:16;;;;;;;20.95;12.40;;;18.90;57.20;;;;;;5013991;28;20068;-59
2020/12/18 08:03:50;;;;;;;19.00;11.98;;;18.90;57.50;;;;;;5013741;28;20449;-59
2020/12/18 08:06:21;;;;;;;23.33;12.77;;;18.90;56.90;;;;;;5014273;28;20029;-59
2020/12/18 08:09:06;;;;;;;;;;;18.90;57.30;;;;;;5014386;28;20056;-59
2020/12/18 08:11:34;;;;;;;29.48;13.15;;;18.80;57.50;;;;;;5014034;28;19912;-59
2020/12/18 08:14:01;;;;;;;21.48;12.73;;;18.80;57.00;;;;;;5013951;28;20062;-58
2020/12/18 08:16:29;;;;;;;28.83;12.50;;;18.70;57.50;;;;;;5013588;28;20034;-53
2020/12/18 08:19:03;;;;;;;28.15;13.35;;;18.70;57.30;;;;;;5013735;28;20050;-58
2020/12/18 08:21:31;;;;;;;43.90;27.08;;;18.70;55.50;;;;;;5013917;28;20402;-57
2020/12/18 08:24:20;;;;;;;85.82;46.63;;;18.70;53.40;;;;;;5009078;28;20037;-57
2020/12/18 08:27:04;;;;;;;128.75;71.57;;;18.80;51.90;;;;;;5007464;28;20393;-56
2020/12/18 08:29:32;;;;;;;164.50;91.32;;;19.00;50.60;;;;;;5013700;28;20124;-58
2020/12/18 08:32:00;;;;;;;182.35;103.88;;;19.00;50.20;;;;;;5013490;28;20025;-52
2020/12/18 08:34:30;;;;;;;145.13;84.47;;;18.90;50.40;;;;;;5013636;28;20049;-52
2020/12/18 08:36:57;;;;;;;;;;;18.70;51.20;;;;;;5014119;28;20030;-50
2020/12/18 08:39:27;;;;;;;45.70;34.80;;;18.00;45.80;;;;;;4995751;28;19909;-50
2020/12/18 08:41:54;;;;;;;129.30;36.42;;;17.10;47.30;;;;;;5013955;28;20061;-53
2020/12/18 08:44:28;;;;;;;37.17;24.45;;;16.50;48.60;;;;;;5013434;28;20026;-52
2020/12/18 08:46:56;;;;;;;54.22;34.88;;;16.00;49.40;;;;;;5013750;28;20050;-56
2020/12/18 08:49:25;;;;;;;56.17;34.35;;;16.40;52.00;;;;;;5013567;28;20356;-51
2020/12/18 08:51:52;;;;;;;76.40;41.47;;;16.90;50.60;;;;;;5013821;28;20026;-56
2020/12/18 08:54:33;;;;;;;63.22;38.88;;;17.40;50.30;;;;;;5013760;28;20026;-57
2020/12/18 08:57:29;;;;;;;;;;;17.80;50.20;;;;;;4996770;28;20425;-58
2020/12/18 09:00:13;;;;;;;69.85;32.28;;;18.00;50.70;;;;;;4996089;28;19924;-55
2020/12/18 09:02:54;;;;;;;50.85;30.23;;;18.10;51.00;;;;;;5017365;28;20026;-55
2020/12/18 09:05:23;;;;;;;49.30;25.88;;;18.30;51.30;;;;;;5017328;28;20030;-57
2020/12/18 09:08:04;;;;;;;43.00;25.00;;;18.50;50.90;;;;;;5015310;28;20398;-59
2020/12/18 09:10:40;;;;;;;36.13;23.05;;;18.70;50.80;;;;;;5015318;28;20028;-58
2020/12/18 09:13:08;;;;;;;38.88;21.83;;;18.90;50.60;;;;;;5015278;28;20022;-58
2020/12/18 09:15:34;;;;;;;46.08;21.35;;;19.10;50.70;;;;;;5015256;28;20378;-54
2020/12/18 09:18:08;;;;;;;36.53;21.13;;;19.10;50.50;;;;;;5015747;28;20056;-54
2020/12/18 09:20:35;;;;;;;33.65;19.55;;;19.10;50.70;;;;;;5015893;28;20371;-55
2020/12/18 09:23:04;;;;;;;29.90;18.08;;;19.10;51.00;;;;;;5016516;28;20036;-53
2020/12/18 09:25:35;;;;;;;35.95;18.58;;;19.10;51.20;;;;;;5016716;28;20069;-54
2020/12/18 09:28:01;;;;;;;31.60;18.67;;;19.20;51.50;;;;;;5017006;28;20038;-52
2020/12/18 09:30:31;;;;;;;30.70;17.45;;;19.20;51.20;;;;;;5016569;28;20458;-53
2020/12/18 09:33:17;;;;;;;32.45;19.15;;;19.40;51.00;;;;;;5016607;28;20482;-55
2020/12/18 09:35:43;;;;;;;30.30;16.52;;;19.50;50.80;;;;;;5016766;28;20108;-58
2020/12/18 09:38:10;;;;;;;30.30;17.15;;;19.60;50.80;;;;;;5016438;28;20037;-58
2020/12/18 09:40:36;;;;;;;28.23;17.23;;;19.50;50.90;;;;;;5016430;28;20544;-58
2020/12/18 09:43:03;;;;;;;31.92;15.93;;;19.40;51.30;;;;;;5016390;28;20030;-58
2020/12/18 09:45:28;;;;;;;28.45;15.98;;;19.30;51.60;;;;;;5016347;28;20117;-58
2020/12/18 09:47:54;;;;;;;33.20;15.48;;;19.20;51.80;;;;;;5016224;28;20116;-58
2020/12/18 09:50:19;;;;;;;27.27;14.07;;;19.20;52.00;;;;;;5016705;28;20414;-58
2020/12/18 09:52:46;;;;;;;29.42;16.40;;;19.20;52.20;;;;;;5016217;28;20488;-58
2020/12/18 09:55:13;;;;;;;25.20;14.50;;;19.20;52.30;;;;;;5016239;28;20041;-58
2020/12/18 09:57:38;;;;;;;24.20;14.25;;;19.10;52.40;;;;;;5015879;28;20033;-58
2020/12/18 10:00:06;;;;;;;24.15;15.60;;;19.10;52.50;;;;;;5015956;28;20363;-58
2020/12/18 10:02:32;;;;;;;21.83;13.73;;;19.10;52.60;;;;;;5016043;28;20116;-59
2020/12/18 10:04:57;;;;;;;31.70;14.80;;;19.10;52.90;;;;;;5015845;28;20109;-58
2020/12/18 10:07:23;;;;;;;20.83;15.15;;;19.10;52.90;;;;;;5015698;28;20026;-58
2020/12/18 10:09:49;;;;;;;26.77;13.50;;;19.10;52.90;;;;;;5015554;28;20026;-58
2020/12/18 10:12:14;;;;;;;19.50;13.82;;;19.10;53.10;;;;;;5015764;28;20037;-58
2020/12/18 10:14:40;;;;;;;25.00;13.93;;;19.10;53.20;;;;;;5015850;28;20029;-58
2020/12/18 10:17:06;;;;;;;21.02;12.38;;;19.10;53.20;;;;;;5015769;28;20458;-58
2020/12/18 10:19:31;;;;;;;20.10;12.77;;;19.00;53.30;;;;;;5015821;28;20131;-58
2020/12/18 10:21:57;;;;;;;26.73;14.20;;;19.00;53.50;;;;;;5015792;28;20057;-58
2020/12/18 10:24:22;;;;;;;19.30;12.85;;;19.10;53.50;;;;;;5015694;28;20597;-58
2020/12/18 10:26:48;;;;;;;19.95;13.07;;;19.00;53.60;;;;;;5015543;28;20033;-58
2020/12/18 10:29:15;;;;;;;20.40;12.82;;;19.00;53.70;;;;;;5015614;28;20084;-59
2020/12/18 10:31:40;;;;;;;19.67;11.75;;;19.10;53.30;;;;;;5015473;28;20458;-58
2020/12/18 10:34:06;;;;;;;17.75;12.73;;;19.20;53.20;;;;;;5015614;28;20033;-59
2020/12/18 10:36:31;;;;;;;21.00;11.23;;;19.20;53.50;;;;;;5015599;28;20054;-57
2020/12/18 10:38:57;;;;;;;32.95;12.90;;;19.30;53.50;;;;;;5016472;28;20030;-60
2020/12/18 10:41:23;;;;;;;22.70;13.00;;;19.30;53.70;;;;;;5014936;28;20041;-60
2020/12/18 10:43:48;;;;;;;17.38;11.35;;;19.20;53.70;;;;;;5015053;28;20058;-60
2020/12/18 10:46:14;;;;;;;21.92;12.50;;;19.20;53.80;;;;;;5015229;28;20029;-59
2020/12/18 10:48:39;;;;;;;20.20;12.32;;;19.10;54.00;;;;;;5015196;28;20034;-59
2020/12/18 10:51:05;;;;;;;20.83;11.18;;;19.10;54.20;;;;;;5015111;28;20029;-59
2020/12/18 10:53:31;;;;;;;25.23;12.63;;;19.40;54.20;;;;;;5015174;28;20041;-59
2020/12/18 10:55:56;;;;;;;18.88;12.30;;;19.10;54.60;;;;;;5014836;28;20030;-59
2020/12/18 10:58:22;;;;;;;21.30;12.23;;;19.00;54.80;;;;;;5014675;28;20065;-61
2020/12/18 11:00:47;;;;;;;20.95;11.48;;;19.00;55.00;;;;;;5014973;28;20030;-59
2020/12/18 11:03:13;;;;;;;22.00;11.60;;;18.90;55.10;;;;;;5014674;28;20034;-59
2020/12/18 11:05:39;;;;;;;18.23;11.70;;;18.90;55.20;;;;;;5015131;28;20105;-61
2020/12/18 11:08:05;;;;;;;16.95;10.35;;;18.90;55.30;;;;;;5023238;28;20472;-59
2020/12/18 11:10:30;;;;;;;16.13;10.48;;;18.90;55.50;;;;;;5025153;28;20036;-61
2020/12/18 11:12:56;;;;;;;18.10;10.45;;;18.90;55.60;;;;;;5021661;28;20028;-60
2020/12/18 11:15:22;;;;;;;17.00;11.68;;;18.90;55.80;;;;;;5024854;28;20029;-59
2020/12/18 11:17:48;;;;;;;15.15;10.48;;;18.80;56.00;;;;;;5024461;28;20081;-59
2020/12/18 11:20:14;;;;;;;18.67;10.32;;;18.80;56.10;;;;;;5020643;28;20044;-59
2020/12/18 11:22:40;;;;;;;15.73;9.65;;;18.80;56.30;;;;;;5023525;28;20401;-60
2020/12/18 11:25:05;;;;;;;16.77;11.05;;;18.70;56.20;;;;;;5021747;28;20061;-59
2020/12/18 11:27:31;;;;;;;19.80;11.32;;;18.80;56.40;;;;;;5022537;28;20434;-59
2020/12/18 11:29:57;;;;;;;15.25;10.50;;;18.80;56.50;;;;;;5024698;28;20029;-60
2020/12/18 11:32:22;;;;;;;16.40;10.90;;;18.70;56.50;;;;;;5024428;28;20056;-59
2020/12/18 11:34:48;;;;;;;17.65;9.82;;;18.70;56.60;;;;;;5015415;28;20076;-61
2020/12/18 11:37:13;;;;;;;20.95;9.88;;;18.70;56.60;;;;;;5014350;28;20042;-57
2020/12/18 11:39:39;;;;;;;22.08;11.25;;;18.90;57.40;;;;;;5016978;28;20048;-59
2020/12/18 11:42:05;;;;;;;19.58;11.70;;;19.00;57.90;;;;;;5033720;28;20038;-59
2020/12/18 11:44:30;;;;;;;19.25;10.27;;;19.00;58.60;;;;;;5032987;28;20029;-59
2020/12/18 11:46:56;;;;;;;24.63;12.07;;;18.90;58.80;;;;;;5032152;28;20028;-60
2020/12/18 11:49:22;;;;;;;28.77;13.43;;;18.90;59.20;;;;;;5032876;28;20030;-59
2020/12/18 11:51:47;;;;;;;20.80;13.45;;;18.80;62.40;;;;;;5033578;28;20109;-59
2020/12/18 11:54:13;;;;;;;20.45;12.85;;;18.80;64.30;;;;;;5033600;28;20029;-57
2020/12/18 11:56:38;;;;;;;24.60;13.90;;;18.80;66.60;;;;;;5033433;28;20108;-57
2020/12/18 11:59:04;;;;;;;30.75;13.48;;;18.80;69.30;;;;;;5010542;28;20488;-59
2020/12/18 12:01:30;;;;;;;22.95;12.75;;;18.90;71.90;;;;;;4994352;28;20069;-58
2020/12/18 12:03:55;;;;;;;19.15;12.35;;;18.90;71.10;;;;;;4999594;28;20183;-59
2020/12/18 12:06:21;;;;;;;19.70;12.55;;;18.80;69.90;;;;;;5013784;28;20470;-59
2020/12/18 12:08:50;;;;;;;20.02;12.57;;;18.80;68.30;;;;;;5013820;28;20030;-58
2020/12/18 12:11:16;;;;;;;24.17;12.95;;;18.70;68.10;;;;;;5013564;28;20037;-58
2020/12/18 12:13:45;;;;;;;19.65;12.10;;;18.70;67.60;;;;;;5013801;28;20026;-59
2020/12/18 12:16:11;;;;;;;21.63;12.10;;;18.70;66.00;;;;;;5013965;28;20029;-58
2020/12/18 12:18:37;;;;;;;22.20;12.57;;;18.60;66.70;;;;;;5013957;28;20053;-57
2020/12/18 12:21:03;;;;;;;22.17;12.65;;;18.50;66.40;;;;;;4996508;28;20034;-61
2020/12/18 12:23:28;;;;;;;23.20;13.43;;;18.60;65.80;;;;;;5013782;28;20022;-61
2020/12/18 12:25:54;;;;;;;19.33;12.63;;;18.70;64.80;;;;;;5013482;28;20026;-62
2020/12/18 12:28:20;;;;;;;26.75;12.98;;;18.70;65.40;;;;;;5013331;28;20072;-60